createdAt,value
2019-01-21T00:02:08.461Z,22.07
2019-01-21T00:06:13.437Z,22.83
2019-01-21T00:10:18.342Z,21.17
2019-01-21T00:14:23.264Z,22.10
2019-01-21T00:18:28.189Z,23.33
2019-01-21T00:22:33.176Z,22.10
2019-01-21T00:26:38.086Z,20.73
2019-01-21T00:30:43.007Z,21.17
2019-01-21T00:34:48.043Z,21.93
2019-01-21T00:38:52.940Z,22.03
2019-01-21T00:42:57.849Z,20.90
2019-01-21T00:47:02.738Z,21.77
2019-01-21T00:51:07.654Z,21.80
2019-01-21T00:55:12.642Z,20.43
2019-01-21T00:59:17.663Z,20.37
2019-01-21T01:03:22.580Z,20.63
2019-01-21T01:07:27.502Z,21.60
2019-01-21T01:11:32.519Z,21.17
2019-01-21T01:15:37.456Z,21.30
2019-01-21T01:19:42.351Z,20.53
2019-01-21T01:23:47.239Z,21.20
2019-01-21T01:27:52.588Z,20.40
2019-01-21T01:31:57.496Z,20.90
2019-01-21T01:36:02.471Z,22.20
2019-01-21T01:40:11.353Z,21.27
2019-01-21T01:44:16.274Z,22.23
2019-01-21T01:48:21.450Z,23.40
2019-01-21T01:52:26.367Z,25.33
2019-01-21T01:56:31.340Z,22.10
2019-01-21T02:00:36.795Z,23.13
2019-01-21T02:04:41.690Z,23.23
2019-01-21T02:08:46.999Z,24.17
2019-01-21T02:12:51.892Z,23.17
2019-01-21T02:16:56.813Z,23.07
2019-01-21T02:21:02.823Z,23.37
2019-01-21T02:25:08.428Z,21.67
2019-01-21T02:29:54.167Z,23.50
2019-01-21T02:35:08.761Z,23.50
2019-01-21T02:39:33.141Z,23.20
2019-01-21T02:44:44.475Z,22.00
2019-01-21T02:49:06.720Z,20.73
2019-01-21T02:54:14.445Z,20.20
2019-01-21T02:58:46.694Z,20.63
2019-01-21T03:03:37.424Z,20.17
2019-01-21T03:08:30.914Z,20.13
2019-01-21T03:13:19.455Z,22.80
2019-01-21T03:18:07.999Z,21.10
2019-01-21T03:22:50.133Z,20.63
2019-01-21T03:27:58.376Z,20.83
2019-01-21T03:32:51.738Z,19.57
2019-01-21T03:38:03.644Z,21.87
2019-01-21T03:42:41.830Z,22.23
2019-01-21T03:47:29.684Z,21.87
2019-01-21T03:52:17.264Z,21.50
2019-01-21T03:57:03.951Z,21.33
2019-01-21T04:02:36.579Z,22.67
2019-01-21T04:07:24.817Z,21.43
2019-01-21T04:12:30.636Z,22.33
2019-01-21T04:17:17.580Z,23.37
2019-01-21T04:22:01.150Z,25.00
2019-01-21T04:26:42.879Z,26.03
2019-01-21T04:31:44.925Z,25.67
2019-01-21T04:36:32.599Z,25.93
2019-01-21T04:40:57.427Z,25.33
2019-01-21T04:45:56.708Z,26.90
2019-01-21T04:50:56.775Z,24.40
2019-01-21T04:56:00.304Z,25.03
2019-01-21T05:00:42.194Z,27.07
2019-01-21T05:05:26.154Z,27.23
2019-01-21T05:10:34.696Z,28.30
2019-01-21T05:15:41.549Z,25.67
2019-01-21T05:21:04.900Z,27.30
2019-01-21T05:26:12.993Z,28.00
2019-01-21T05:30:59.591Z,26.20
2019-01-21T05:36:04.886Z,30.33
2019-01-21T05:40:57.871Z,28.00
2019-01-21T05:45:44.007Z,25.83
2019-01-21T05:50:18.141Z,28.07
2019-01-21T05:55:07.503Z,28.43
2019-01-21T05:59:48.795Z,28.03
2019-01-21T06:04:41.285Z,28.23
2019-01-21T06:09:32.138Z,29.53
2019-01-21T06:14:21.366Z,31.17
2019-01-21T06:19:29.455Z,33.40
2019-01-21T06:24:00.008Z,31.57
2019-01-21T06:29:11.855Z,29.80
2019-01-21T06:33:56.413Z,30.20
2019-01-21T06:39:10.413Z,31.73
2019-01-21T06:44:10.314Z,29.00
2019-01-21T06:48:54.584Z,31.80
2019-01-21T06:53:34.494Z,31.07
2019-01-21T06:58:13.051Z,29.43
2019-01-21T07:03:25.061Z,31.47
2019-01-21T07:08:17.949Z,34.53
2019-01-21T07:13:15.263Z,33.40
2019-01-21T07:18:12.421Z,33.27
2019-01-21T07:23:09.145Z,36.20
2019-01-21T07:27:57.635Z,35.53
2019-01-21T07:32:22.633Z,33.57
2019-01-21T07:37:31.302Z,34.43
2019-01-21T07:42:26.257Z,33.60
2019-01-21T07:47:26.488Z,33.73
2019-01-21T07:52:27.672Z,36.33
2019-01-21T07:57:23.184Z,37.67
2019-01-21T08:02:06.041Z,40.83
2019-01-21T08:06:48.960Z,39.13
2019-01-21T08:11:44.482Z,40.97
2019-01-21T08:16:38.954Z,42.00
2019-01-21T08:21:34.272Z,47.40
2019-01-21T08:26:16.023Z,49.73
2019-01-21T08:31:29.472Z,53.10
2019-01-21T08:36:39.341Z,75.27
2019-01-21T08:41:45.542Z,87.57
2019-01-21T08:46:27.112Z,87.47
2019-01-21T08:51:13.200Z,88.40
2019-01-21T08:56:02.625Z,87.97
2019-01-21T09:00:19.880Z,84.97
2019-01-21T09:05:29.395Z,88.13
2019-01-21T09:10:06.049Z,70.00
2019-01-21T09:14:40.993Z,82.40
2019-01-21T09:19:21.752Z,91.63
2019-01-21T09:24:08.083Z,91.17
2019-01-21T09:29:07.322Z,95.70
2019-01-21T09:34:11.637Z,50.97
2019-01-21T09:39:14.948Z,81.77
2019-01-21T09:43:59.014Z,88.13
2019-01-21T09:48:02.070Z,55.73
2019-01-21T09:52:19.201Z,84.17
2019-01-21T09:56:24.955Z,66.87
2019-01-21T10:00:29.860Z,60.03
2019-01-21T10:05:07.272Z,39.17
2019-01-21T10:09:48.419Z,54.80
2019-01-21T10:14:59.125Z,54.90
2019-01-21T10:20:19.629Z,42.37
2019-01-21T10:24:53.724Z,43.47
2019-01-21T10:30:06.224Z,43.00
2019-01-21T10:35:10.555Z,42.83
2019-01-21T10:40:07.922Z,44.40
2019-01-21T10:44:59.008Z,41.77
2019-01-21T10:49:43.693Z,37.83
2019-01-21T10:54:36.787Z,35.07
2019-01-21T10:59:32.807Z,35.30
2019-01-21T11:04:26.466Z,29.17
2019-01-21T11:09:35.847Z,26.93
2019-01-21T11:14:47.651Z,28.37
2019-01-21T11:19:54.072Z,30.93
2019-01-21T11:25:42.129Z,28.10
2019-01-21T11:30:21.510Z,25.87
2019-01-21T11:35:19.630Z,28.80
2019-01-21T11:40:32.365Z,26.33
2019-01-21T11:45:41.451Z,24.40
2019-01-21T11:50:43.788Z,23.90
2019-01-21T11:55:40.019Z,24.73
2019-01-21T12:00:42.658Z,25.27
2019-01-21T12:05:30.758Z,25.10
2019-01-21T12:10:40.571Z,25.47
2019-01-21T12:15:26.032Z,26.57
2019-01-21T12:20:03.145Z,25.23
2019-01-21T12:24:45.871Z,24.13
2019-01-21T12:29:45.932Z,25.10
2019-01-21T12:34:46.544Z,24.17
2019-01-21T12:39:09.694Z,23.93
2019-01-21T12:43:42.301Z,26.17
2019-01-21T12:48:29.438Z,24.23
2019-01-21T12:52:53.198Z,25.73
2019-01-21T12:58:19.675Z,23.37
2019-01-21T13:03:34.609Z,22.10
2019-01-21T13:08:58.314Z,21.53
2019-01-21T13:13:58.556Z,21.13
2019-01-21T13:18:54.741Z,21.07
2019-01-21T13:23:51.338Z,21.87
2019-01-21T13:28:45.780Z,20.23
2019-01-21T13:33:34.428Z,21.17
2019-01-21T13:38:29.650Z,19.03
2019-01-21T13:43:17.997Z,21.03
2019-01-21T13:48:19.054Z,21.50
2019-01-21T13:52:59.862Z,20.63
2019-01-21T13:58:14.531Z,21.10
2019-01-21T14:02:43.413Z,21.17
2019-01-21T14:07:36.823Z,20.47
2019-01-21T14:12:31.916Z,20.30
2019-01-21T14:17:40.908Z,20.43
2019-01-21T14:22:44.950Z,20.83
2019-01-21T14:28:01.535Z,21.50
2019-01-21T14:32:36.276Z,20.17
2019-01-21T14:37:47.299Z,19.77
2019-01-21T14:42:48.493Z,21.53
2019-01-21T14:47:51.103Z,20.10
2019-01-21T14:53:08.848Z,19.00
2019-01-21T14:58:05.098Z,21.03
2019-01-21T15:03:00.668Z,20.30
2019-01-21T15:07:32.612Z,20.10
2019-01-21T15:12:46.254Z,20.67
2019-01-21T15:17:49.552Z,19.83
2019-01-21T15:22:38.426Z,20.50
2019-01-21T15:27:22.263Z,19.27
2019-01-21T15:32:12.655Z,19.67
2019-01-21T15:37:08.951Z,20.70
2019-01-21T15:41:59.379Z,20.10
2019-01-21T15:47:05.615Z,20.43
2019-01-21T15:51:57.591Z,20.47
2019-01-21T15:56:51.238Z,20.90
2019-01-21T16:02:01.452Z,20.97
2019-01-21T16:07:06.187Z,21.03
2019-01-21T16:11:48.562Z,20.93
2019-01-21T16:17:08.257Z,22.10
2019-01-21T16:22:05.516Z,20.63
2019-01-21T16:26:27.569Z,20.60
2019-01-21T16:30:57.315Z,23.07
2019-01-21T16:35:31.528Z,23.27
2019-01-21T16:40:26.627Z,23.63
2019-01-21T16:44:31.628Z,23.30
2019-01-21T16:48:36.934Z,22.13
2019-01-21T16:52:41.956Z,22.43
2019-01-21T16:56:46.959Z,22.80
2019-01-21T17:00:51.947Z,25.13
2019-01-21T17:04:56.824Z,24.23
2019-01-21T17:09:01.745Z,25.03
2019-01-21T17:13:06.731Z,24.73
2019-01-21T17:21:16.892Z,25.90
2019-01-21T17:25:21.844Z,24.53
2019-01-21T17:29:26.752Z,25.30
2019-01-21T17:33:32.312Z,25.53
2019-01-21T17:37:37.498Z,25.00
2019-01-21T17:41:42.478Z,26.40
2019-01-21T17:45:47.390Z,27.00
2019-01-21T17:49:52.335Z,26.50
2019-01-21T17:53:57.241Z,28.93
2019-01-21T17:58:02.221Z,27.47
2019-01-21T18:02:07.535Z,28.27
2019-01-21T18:06:12.448Z,26.53
2019-01-21T18:10:20.447Z,27.13
2019-01-21T18:14:25.455Z,29.47
2019-01-21T18:18:30.373Z,30.27
2019-01-21T18:22:35.401Z,31.23
2019-01-21T18:26:40.426Z,31.37
2019-01-21T18:30:45.316Z,30.03
2019-01-21T18:34:50.684Z,31.37
2019-01-21T18:38:55.594Z,31.17
2019-01-21T18:43:00.628Z,31.63
2019-01-21T18:47:05.890Z,29.57
2019-01-21T18:51:10.892Z,31.60
2019-01-21T18:55:15.777Z,29.83
2019-01-21T18:59:20.793Z,32.27
2019-01-21T19:03:26.169Z,34.07
2019-01-21T19:07:31.218Z,32.73
2019-01-21T19:11:36.549Z,30.77
2019-01-21T19:15:41.429Z,32.37
2019-01-21T19:19:46.342Z,33.17
2019-01-21T19:23:51.681Z,32.07
2019-01-21T19:27:56.732Z,34.10
2019-01-21T19:32:01.723Z,33.13
2019-01-21T19:36:06.735Z,33.27
2019-01-21T19:40:16.332Z,34.20
2019-01-21T19:44:21.635Z,32.50
2019-01-21T19:48:26.531Z,33.00
2019-01-21T19:52:31.462Z,34.67
2019-01-21T19:56:36.449Z,33.63
2019-01-21T20:00:41.460Z,34.33
2019-01-21T20:04:46.374Z,34.30
2019-01-21T20:08:51.281Z,36.10
2019-01-21T20:12:56.239Z,36.40
2019-01-21T20:17:01.392Z,36.23
2019-01-21T20:21:06.436Z,36.47
2019-01-21T20:25:11.673Z,40.27
2019-01-21T20:29:16.667Z,38.97
2019-01-21T20:33:21.620Z,40.03
2019-01-21T20:37:31.144Z,40.83
2019-01-21T20:41:36.082Z,39.40
2019-01-21T20:45:41.685Z,40.90
2019-01-21T20:49:46.567Z,42.40
2019-01-21T20:53:52.173Z,38.97
2019-01-21T20:57:57.543Z,41.77
2019-01-21T21:02:02.702Z,39.30
2019-01-21T21:06:07.946Z,42.23
2019-01-21T21:10:13.259Z,39.93
2019-01-21T21:14:18.599Z,42.40
2019-01-21T21:18:23.554Z,42.33
2019-01-21T21:22:28.601Z,42.17
2019-01-21T21:26:33.539Z,42.57
2019-01-21T21:30:38.547Z,40.97
2019-01-21T21:34:43.936Z,44.30
2019-01-21T21:38:48.865Z,42.33
2019-01-21T21:42:53.820Z,41.47
2019-01-21T21:46:58.783Z,41.87
2019-01-21T21:51:03.730Z,42.07
2019-01-21T21:55:10.249Z,41.80
2019-01-21T21:59:15.455Z,38.27
2019-01-21T22:03:20.409Z,42.80
2019-01-21T22:07:25.432Z,41.10
2019-01-21T22:11:30.365Z,39.27
2019-01-21T22:15:35.681Z,40.73
2019-01-21T22:19:40.708Z,39.17
2019-01-21T22:23:45.630Z,40.97
2019-01-21T22:27:50.571Z,40.57
2019-01-21T22:31:55.515Z,40.27
2019-01-21T22:36:00.846Z,37.23
2019-01-21T22:40:08.723Z,40.47
2019-01-21T22:44:14.207Z,40.83
2019-01-21T22:48:19.124Z,41.57
2019-01-21T22:52:24.332Z,42.80
2019-01-21T22:56:29.284Z,44.63
2019-01-21T23:01:11.807Z,41.67
2019-01-21T23:05:16.856Z,38.93
2019-01-21T23:09:22.071Z,44.30
2019-01-21T23:13:26.964Z,46.17
2019-01-21T23:17:31.895Z,43.00
2019-01-21T23:21:36.854Z,43.00
2019-01-21T23:25:41.779Z,40.83
2019-01-21T23:29:46.684Z,42.03
2019-01-21T23:33:51.924Z,45.20
2019-01-21T23:37:56.855Z,39.90
2019-01-21T23:42:01.858Z,39.83
2019-01-21T23:46:06.770Z,45.93
2019-01-21T23:50:11.689Z,42.93
2019-01-21T23:54:17.051Z,37.53
2019-01-21T23:58:21.961Z,34.57
